Time;durP1;ratioP1;P1;durP2;ratioP2;P2;SDS_P1;SDS_P2;PMS_P1;PMS_P2;Temp;Humidity;BMP_temperature;BMP_pressure;BME280_temperature;BME280_humidity;BME280_pressure;Samples;Min_cycle;Max_cycle;Signal;HPM_P1;HPM_P2
2022/06/26 00:00:47;;;;;;;34.10;24.58;;;;;;;16.35;100.00;101158.31;5068673;28;20337;-73
2022/06/26 00:03:12;;;;;;;33.85;24.20;;;;;;;16.35;100.00;101151.25;5059433;28;20079;-73
2022/06/26 00:05:38;;;;;;;35.47;24.30;;;;;;;16.37;100.00;101149.41;5051391;28;20041;-73
2022/06/26 00:08:04;;;;;;;30.63;23.80;;;;;;;16.43;100.00;101147.44;5054599;28;20044;-73
2022/06/26 00:10:29;;;;;;;34.78;24.45;;;;;;;16.38;100.00;101156.38;5069819;28;20070;-73
2022/06/26 00:12:55;;;;;;;34.17;22.95;;;;;;;16.34;100.00;101160.03;5060634;28;20082;-73
2022/06/26 00:15:20;;;;;;;34.38;23.50;;;;;;;16.38;100.00;101160.75;5071384;28;20526;-73
2022/06/26 00:17:45;;;;;;;34.78;24.42;;;;;;;16.41;100.00;101167.69;5065723;28;20032;-73
2022/06/26 00:20:11;;;;;;;38.38;22.92;;;;;;;16.37;100.00;101166.97;5064493;28;20029;-73
2022/06/26 00:22:36;;;;;;;32.95;23.17;;;;;;;16.32;100.00;101166.31;5069280;28;20502;-73
2022/06/26 00:25:02;;;;;;;36.85;22.67;;;;;;;16.34;100.00;101170.56;5071769;28;20433;-73
2022/06/26 00:27:28;;;;;;;33.88;24.13;;;;;;;16.31;100.00;101170.69;5071901;28;20029;-73
2022/06/26 00:29:53;;;;;;;35.13;24.05;;;;;;;16.33;100.00;101163.59;5070454;28;20516;-73
2022/06/26 00:32:18;;;;;;;30.55;23.65;;;;;;;16.25;100.00;101167.47;5069802;28;20491;-73
2022/06/26 00:34:44;;;;;;;29.92;22.25;;;;;;;16.18;100.00;101174.75;5067997;28;20456;-73
2022/06/26 00:37:09;;;;;;;30.55;22.75;;;;;;;16.08;100.00;101181.31;5064239;28;20024;-73
2022/06/26 00:39:34;;;;;;;31.27;23.23;;;;;;;16.00;100.00;101181.66;5064287;28;20024;-73
2022/06/26 00:42:00;;;;;;;28.90;21.63;;;;;;;15.99;100.00;101195.72;5070572;28;20059;-73
2022/06/26 00:44:26;;;;;;;37.50;22.85;;;;;;;15.88;100.00;101193.50;5071104;28;20020;-73
2022/06/26 00:46:52;;;;;;;34.63;23.35;;;;;;;15.89;100.00;101194.34;5070890;28;20035;-73
2022/06/26 00:49:18;;;;;;;32.38;23.10;;;;;;;15.84;100.00;101206.84;5071421;28;20017;-73
2022/06/26 00:51:50;;;;;;;33.83;23.17;;;;;;;15.79;100.00;101206.16;5056850;28;20385;-73
2022/06/26 00:54:16;;;;;;;34.97;21.80;;;;;;;15.81;100.00;101220.09;5070277;28;20024;-73
2022/06/26 00:56:42;;;;;;;36.75;23.17;;;;;;;15.84;100.00;101214.72;5069998;28;20174;-73
2022/06/26 00:59:07;;;;;;;35.17;23.40;;;;;;;15.89;100.00;101215.38;5071521;28;20051;-73
2022/06/26 01:01:36;;;;;;;33.42;23.42;;;;;;;15.88;100.00;101217.16;5073131;28;20043;-73
2022/06/26 01:04:02;;;;;;;37.92;24.13;;;;;;;15.92;100.00;101210.00;5074717;28;20441;-73
2022/06/26 01:06:29;;;;;;;39.25;24.30;;;;;;;15.91;100.00;101208.31;5075443;28;20031;-73
2022/06/26 01:08:54;;;;;;;36.88;23.67;;;;;;;15.92;100.00;101215.25;5075003;28;20035;-73
2022/06/26 01:11:20;;;;;;;39.08;24.67;;;;;;;15.89;100.00;101215.38;5067002;28;20032;-73
2022/06/26 01:13:48;;;;;;;38.80;24.95;;;;;;;15.95;100.00;101216.94;5060593;28;20059;-73
2022/06/26 01:16:16;;;;;;;43.20;25.60;;;;;;;15.96;100.00;101222.13;5060137;28;20020;-73
2022/06/26 01:18:43;;;;;;;41.05;25.27;;;;;;;15.89;100.00;101225.91;5074200;28;20033;-74
2022/06/26 01:21:09;;;;;;;38.95;24.80;;;;;;;15.88;100.00;101232.09;5075149;28;20100;-73
2022/06/26 01:23:34;;;;;;;44.05;25.92;;;;;;;15.93;100.00;101229.28;5072663;28;20119;-73
2022/06/26 01:25:59;;;;;;;39.38;25.05;;;;;;;15.87;100.00;101222.50;5074233;28;20025;-73
2022/06/26 01:28:25;;;;;;;34.30;24.55;;;;;;;15.87;100.00;101228.59;5075280;28;20479;-73
2022/06/26 01:30:50;;;;;;;39.20;23.50;;;;;;;15.81;100.00;101231.47;5073303;28;20440;-73
2022/06/26 01:33:16;;;;;;;32.65;22.33;;;;;;;15.81;100.00;101233.25;5062645;28;20027;-73
2022/06/26 01:35:41;;;;;;;40.00;24.70;;;;;;;15.82;100.00;101238.44;5074254;28;20468;-73
2022/06/26 01:38:08;;;;;;;35.30;24.00;;;;;;;15.82;100.00;101235.81;5074993;28;20060;-73
2022/06/26 01:40:33;;;;;;;33.95;23.90;;;;;;;15.86;100.00;101232.16;5072881;28;20431;-73
2022/06/26 01:42:59;;;;;;;40.63;25.70;;;;;;;15.87;100.00;101231.25;5073432;28;20025;-73
2022/06/26 01:45:24;;;;;;;41.28;26.45;;;;;;;15.86;100.00;101237.41;5073708;28;20032;-73
2022/06/26 01:47:50;;;;;;;37.97;26.08;;;;;;;15.86;100.00;101231.31;5072503;28;20035;-73
2022/06/26 01:50:15;;;;;;;42.13;25.85;;;;;;;15.82;100.00;101229.69;5074784;28;20009;-73
2022/06/26 01:52:41;;;;;;;45.05;27.75;;;;;;;15.80;100.00;101232.41;5072064;28;20393;-73
2022/06/26 01:55:06;;;;;;;40.38;27.73;;;;;;;15.75;100.00;101225.59;5073727;28;20107;-73
2022/06/26 01:57:31;;;;;;;40.63;26.40;;;;;;;15.77;100.00;101222.00;5071133;28;20043;-73
2022/06/26 01:59:57;;;;;;;39.58;26.63;;;;;;;15.81;100.00;101235.88;5072366;28;20029;-73
2022/06/26 02:02:22;;;;;;;43.50;27.13;;;;;;;15.71;100.00;101224.88;5071698;28;20532;-73
2022/06/26 02:04:47;;;;;;;43.53;27.08;;;;;;;15.70;100.00;101220.53;5072912;28;20028;-73
2022/06/26 02:07:13;;;;;;;42.15;27.10;;;;;;;15.64;100.00;101221.59;5072365;28;20028;-73
2022/06/26 02:15:07;;;;;;;40.38;26.85;;;;;;;15.62;100.00;101207.63;5070524;28;20075;-73
2022/06/26 02:17:32;;;;;;;43.30;26.63;;;;;;;15.66;100.00;101206.66;5070272;28;20059;-73
2022/06/26 02:19:57;;;;;;;44.88;26.33;;;;;;;15.61;100.00;101198.06;5072952;28;20107;-73
2022/06/26 02:22:23;;;;;;;42.13;26.25;;;;;;;15.58;100.00;101200.78;5070917;28;20063;-73
2022/06/26 02:24:48;;;;;;;43.55;26.13;;;;;;;15.52;100.00;101203.66;5071418;28;20036;-73
2022/06/26 02:27:13;;;;;;;40.50;25.00;;;;;;;15.39;100.00;101205.03;5072820;28;20017;-73
2022/06/26 02:29:39;;;;;;;40.03;25.02;;;;;;;15.34;100.00;101214.88;5071445;28;20421;-73
2022/06/26 02:32:04;;;;;;;40.03;25.67;;;;;;;15.25;100.00;101210.81;5071657;28;20073;-73
2022/06/26 02:34:30;;;;;;;38.97;25.13;;;;;;;15.23;100.00;101215.25;5072638;28;20025;-73
2022/06/26 02:36:55;;;;;;;42.35;24.85;;;;;;;15.15;100.00;101219.94;5071481;28;20032;-73
2022/06/26 02:39:20;;;;;;;41.45;26.30;;;;;;;15.07;100.00;101225.44;5072835;28;20031;-72
2022/06/26 02:41:46;;;;;;;41.63;25.00;;;;;;;15.03;100.00;101229.09;5070448;28;20081;-73
2022/06/26 02:44:11;;;;;;;41.80;24.90;;;;;;;15.05;100.00;101237.78;5069252;28;20029;-73
2022/06/26 02:46:36;;;;;;;38.90;23.42;;;;;;;14.94;100.00;101232.94;5071720;28;20391;-73
2022/06/26 02:49:01;;;;;;;36.33;24.00;;;;;;;14.86;100.00;101239.34;5068483;28;20039;-72
2022/06/26 02:51:27;;;;;;;44.83;24.20;;;;;;;14.79;100.00;101248.34;5070926;28;20103;-73
2022/06/26 02:53:52;;;;;;;38.63;23.92;;;;;;;14.78;100.00;101244.88;5070861;28;20034;-73
2022/06/26 02:56:17;;;;;;;35.92;23.35;;;;;;;14.68;100.00;101253.94;5035992;28;1032149;-73
2022/06/26 02:58:42;;;;;;;42.92;23.35;;;;;;;14.63;100.00;101248.88;5072764;28;20465;-73
2022/06/26 03:01:08;;;;;;;37.88;22.42;;;;;;;14.57;100.00;101251.69;5073657;28;20060;-73
2022/06/26 03:03:33;;;;;;;33.80;21.20;;;;;;;14.54;100.00;101254.41;5070634;28;20029;-73
2022/06/26 03:05:58;;;;;;;37.42;22.08;;;;;;;14.49;100.00;101259.81;5073090;28;20033;-73
2022/06/26 03:08:24;;;;;;;31.30;20.17;;;;;;;14.46;100.00;101253.81;5073389;28;20028;-73
2022/06/26 03:10:50;;;;;;;33.38;20.48;;;;;;;14.36;100.00;101253.25;5068785;28;20530;-73
2022/06/26 03:13:15;;;;;;;39.22;20.52;;;;;;;14.31;100.00;101255.16;5055471;28;20035;-73
2022/06/26 03:15:41;;;;;;;33.05;20.23;;;;;;;14.32;100.00;101267.34;5065009;28;20028;-73
2022/06/26 03:18:06;;;;;;;32.83;18.95;;;;;;;14.27;100.00;101269.28;5070265;28;20123;-73
2022/06/26 03:20:32;;;;;;;31.55;20.15;;;;;;;14.21;100.00;101272.94;5073141;28;20038;-73
2022/06/26 03:22:57;;;;;;;31.08;20.08;;;;;;;14.16;100.00;101282.72;5070536;28;20040;-73
2022/06/26 03:25:23;;;;;;;34.45;19.67;;;;;;;14.14;100.00;101287.16;5072274;28;20024;-73
2022/06/26 03:27:48;;;;;;;30.75;18.83;;;;;;;14.16;100.00;101290.59;5071891;28;20371;-73
2022/06/26 03:30:14;;;;;;;35.50;19.23;;;;;;;14.11;100.00;101274.13;5073057;28;20117;-73
2022/06/26 03:32:39;;;;;;;30.48;17.63;;;;;;;14.08;100.00;101276.00;5070296;28;20031;-73
2022/06/26 03:35:06;;;;;;;29.65;18.13;;;;;;;14.04;100.00;101285.72;5071591;28;20020;-72
2022/06/26 03:37:31;;;;;;;34.15;17.58;;;;;;;14.05;100.00;101298.78;5066012;28;20020;-72
2022/06/26 03:39:56;;;;;;;28.90;16.95;;;;;;;14.04;100.00;101302.31;5071350;28;20054;-72
2022/06/26 03:42:22;;;;;;;31.75;17.92;;;;;;;13.99;100.00;101298.97;5070645;28;20035;-73
2022/06/26 03:44:47;;;;;;;33.00;18.52;;;;;;;13.97;100.00;101315.66;5069555;28;20503;-73
2022/06/26 03:47:13;;;;;;;28.70;16.88;;;;;;;13.93;100.00;101314.00;5072014;28;20024;-73
2022/06/26 03:49:38;;;;;;;31.15;16.83;;;;;;;13.88;100.00;101310.69;5071848;28;20070;-72
2022/06/26 03:52:04;;;;;;;27.15;16.65;;;;;;;13.89;100.00;101315.88;5070063;28;20027;-73
2022/06/26 03:54:30;;;;;;;32.75;15.90;;;;;;;13.87;100.00;101316.84;5071191;28;20035;-73
2022/06/26 03:56:55;;;;;;;24.85;15.43;;;;;;;13.90;100.00;101312.38;5071295;28;20041;-73
2022/06/26 03:59:21;;;;;;;30.40;16.08;;;;;;;13.91;100.00;101311.44;5072340;28;20112;-73
2022/06/26 04:01:47;;;;;;;26.20;15.70;;;;;;;13.91;100.00;101307.97;5061790;28;20028;-72
2022/06/26 04:04:12;;;;;;;31.33;15.70;;;;;;;13.96;100.00;101303.44;5062836;28;20029;-73
2022/06/26 04:06:37;;;;;;;32.40;15.55;;;;;;;13.93;100.00;101287.81;5064080;28;20023;-73
2022/06/26 04:09:03;;;;;;;28.48;14.68;;;;;;;13.90;100.00;101306.28;5057796;28;20066;-73
2022/06/26 04:11:29;;;;;;;22.45;13.88;;;;;;;13.88;100.00;101300.19;5063584;28;20021;-73
2022/06/26 04:13:54;;;;;;;23.63;14.15;;;;;;;13.86;100.00;101304.63;5064781;28;20100;-73
2022/06/26 04:16:20;;;;;;;23.73;13.80;;;;;;;13.87;100.00;101311.59;5070414;28;20024;-73
2022/06/26 04:18:45;;;;;;;25.25;14.93;;;;;;;13.92;100.00;101307.06;5071619;28;20107;-73
2022/06/26 04:21:10;;;;;;;28.98;14.95;;;;;;;13.90;100.00;101314.13;5070426;28;20024;-73
2022/06/26 04:23:36;;;;;;;26.77;14.48;;;;;;;13.88;100.00;101315.94;5070023;28;20495;-73
2022/06/26 04:26:01;;;;;;;28.90;14.40;;;;;;;13.90;100.00;101319.38;5071695;28;20036;-73
2022/06/26 04:28:26;;;;;;;26.52;14.05;;;;;;;13.89;100.00;101325.50;5069365;28;20055;-73
2022/06/26 04:30:52;;;;;;;28.13;15.23;;;;;;;13.90;100.00;101335.09;5070138;28;20037;-73
2022/06/26 04:33:17;;;;;;;27.45;14.40;;;;;;;13.96;100.00;101342.75;5071990;28;20491;-73
2022/06/26 04:35:42;;;;;;;26.63;14.85;;;;;;;13.93;100.00;101341.09;5070618;28;20025;-73
2022/06/26 04:38:08;;;;;;;23.30;13.60;;;;;;;13.97;100.00;101355.84;5071590;28;20079;-73
2022/06/26 04:40:33;;;;;;;25.95;14.43;;;;;;;14.03;100.00;101355.66;5065788;28;20043;-73
2022/06/26 04:42:58;;;;;;;32.67;15.07;;;;;;;14.13;100.00;101355.38;5070824;28;20114;-73
2022/06/26 04:45:24;;;;;;;31.88;14.80;;;;;;;14.18;100.00;101359.56;5072045;28;20095;-73
2022/06/26 04:47:49;;;;;;;24.92;15.02;;;;;;;14.29;100.00;101370.59;5070849;28;20056;-73
2022/06/26 04:50:15;;;;;;;28.45;15.20;;;;;;;14.34;100.00;101362.59;5065148;28;20056;-72
2022/06/26 04:52:47;;;;;;;30.42;15.23;;;;;;;14.44;100.00;101371.03;5062759;28;20394;-73
2022/06/26 04:55:13;;;;;;;28.53;14.93;;;;;;;14.44;100.00;101374.50;5071147;28;20063;-73
2022/06/26 04:57:39;;;;;;;25.55;13.85;;;;;;;14.49;100.00;101369.13;5063832;28;20048;-73
2022/06/26 05:00:14;;;;;;;29.05;14.25;;;;;;;14.56;100.00;101360.19;5068318;28;20476;-73
2022/06/26 05:02:40;;;;;;;30.20;13.65;;;;;;;14.61;100.00;101366.13;5070817;28;20048;-73
2022/06/26 05:05:06;;;;;;;23.83;13.85;;;;;;;14.68;100.00;101375.56;5070967;28;20380;-73
2022/06/26 05:07:32;;;;;;;28.45;14.02;;;;;;;14.74;100.00;101367.44;5069997;28;20480;-73
2022/06/26 05:09:58;;;;;;;26.23;13.15;;;;;;;14.78;100.00;101372.59;5059470;28;20036;-73
2022/06/26 05:12:23;;;;;;;29.98;13.10;;;;;;;14.77;100.00;101365.66;5062783;28;20035;-73
2022/06/26 05:14:49;;;;;;;22.45;12.50;;;;;;;14.75;100.00;101371.81;5071026;28;20020;-73
2022/06/26 05:17:14;;;;;;;20.98;12.63;;;;;;;14.68;100.00;101383.44;5070668;28;20493;-73
2022/06/26 05:19:39;;;;;;;27.05;13.20;;;;;;;14.64;100.00;101378.31;5070866;28;20032;-73
2022/06/26 05:22:05;;;;;;;22.60;12.43;;;;;;;14.66;100.00;101385.22;5061263;28;20384;-73
2022/06/26 05:24:30;;;;;;;22.90;12.85;;;;;;;14.67;100.00;101375.59;5068461;28;20110;-73
2022/06/26 05:26:57;;;;;;;26.60;13.27;;;;;;;14.68;100.00;101379.91;5069418;28;20032;-73
2022/06/26 05:29:23;;;;;;;28.27;12.93;;;;;;;14.73;100.00;101380.63;5068021;28;20020;-73
2022/06/26 05:31:48;;;;;;;27.77;13.00;;;;;;;14.78;100.00;101376.13;5057908;28;20032;-73
2022/06/26 05:34:13;;;;;;;23.95;12.52;;;;;;;14.81;100.00;101364.63;5071251;28;20024;-73
2022/06/26 05:36:39;;;;;;;27.13;12.98;;;;;;;14.85;100.00;101368.91;5065450;28;20495;-72
2022/06/26 05:39:04;;;;;;;27.40;12.93;;;;;;;14.87;100.00;101375.78;5070687;28;20064;-73
2022/06/26 05:41:29;;;;;;;24.27;13.50;;;;;;;14.87;100.00;101385.44;5071326;28;20518;-73
2022/06/26 05:43:55;;;;;;;28.60;12.25;;;;;;;14.90;100.00;101388.81;5068378;28;20044;-73
2022/06/26 05:46:20;;;;;;;28.20;12.25;;;;;;;14.90;100.00;101398.47;5071067;28;20048;-73
2022/06/26 05:48:45;;;;;;;24.65;12.50;;;;;;;14.94;100.00;101403.59;5073522;28;20055;-73
2022/06/26 05:51:11;;;;;;;26.52;13.18;;;;;;;15.04;100.00;101403.25;5069653;28;20375;-73
2022/06/26 05:53:37;;;;;;;26.75;12.98;;;;;;;15.09;100.00;101412.72;5073469;28;20025;-73
2022/06/26 05:56:03;;;;;;;27.52;13.38;;;;;;;15.28;100.00;101414.72;5073390;28;20040;-73
2022/06/26 05:58:29;;;;;;;27.27;13.00;;;;;;;15.38;100.00;101416.97;5074362;28;20434;-73
2022/06/26 06:00:54;;;;;;;24.17;12.75;;;;;;;15.52;100.00;101413.88;5066020;28;20044;-73
2022/06/26 06:03:20;;;;;;;21.73;11.75;;;;;;;15.66;100.00;101414.28;5070517;28;20032;-73
2022/06/26 06:05:45;;;;;;;21.25;11.43;;;;;;;15.80;100.00;101421.69;5069746;28;20533;-73
2022/06/26 06:08:11;;;;;;;20.40;10.77;;;;;;;15.85;100.00;101419.72;5073999;28;20034;-73
2022/06/26 06:10:36;;;;;;;21.80;10.73;;;;;;;15.95;100.00;101433.41;5072595;28;20465;-73
2022/06/26 06:13:02;;;;;;;18.45;10.43;;;;;;;16.08;100.00;101426.78;5061670;28;20111;-73
2022/06/26 06:15:27;;;;;;;17.83;10.23;;;;;;;16.17;100.00;101427.34;5073862;28;20020;-73
2022/06/26 06:17:53;;;;;;;16.98;9.63;;;;;;;16.31;100.00;101420.63;5061136;28;20040;-73
2022/06/26 06:20:20;;;;;;;21.02;9.95;;;;;;;16.47;100.00;101414.81;5072386;28;20033;-73
2022/06/26 06:22:48;;;;;;;13.57;8.73;;;;;;;16.48;100.00;101408.59;5070688;28;20040;-73
2022/06/26 06:25:14;;;;;;;13.02;8.25;;;;;;;16.51;100.00;101413.75;5074467;28;20020;-72
2022/06/26 06:27:40;;;;;;;15.70;9.63;;;;;;;16.42;100.00;101409.72;5061321;28;20039;-73
2022/06/26 06:30:08;;;;;;;14.02;8.48;;;;;;;16.39;100.00;101426.47;5072925;28;20055;-72
2022/06/26 06:32:33;;;;;;;16.20;8.85;;;;;;;16.41;100.00;101425.56;5073578;28;20036;-73
2022/06/26 06:34:59;;;;;;;20.08;9.25;;;;;;;16.40;100.00;101435.22;5072958;28;20357;-72
2022/06/26 06:37:25;;;;;;;18.60;9.00;;;;;;;16.42;100.00;101445.72;5071929;28;20112;-73
2022/06/26 06:39:50;;;;;;;18.67;9.85;;;;;;;16.57;100.00;101430.16;5073433;28;20473;-73
2022/06/26 06:42:15;;;;;;;18.02;9.20;;;;;;;16.69;100.00;101436.72;5072165;28;20032;-72
2022/06/26 06:44:41;;;;;;;15.35;8.57;;;;;;;16.76;100.00;101447.91;5071458;28;20104;-73
2022/06/26 06:47:06;;;;;;;15.55;8.38;;;;;;;16.84;100.00;101451.13;5071425;28;20480;-73
2022/06/26 06:49:32;;;;;;;12.73;7.72;;;;;;;16.87;100.00;101464.13;5073215;28;20048;-72
2022/06/26 06:51:58;;;;;;;18.10;8.13;;;;;;;16.88;100.00;101465.00;5072100;28;20189;-72
2022/06/26 06:54:24;;;;;;;12.50;8.02;;;;;;;16.79;100.00;101476.75;5073605;28;20174;-72
2022/06/26 06:56:50;;;;;;;13.52;7.60;;;;;;;16.84;100.00;101485.34;5068231;28;20041;-72
2022/06/26 06:59:15;;;;;;;13.00;7.60;;;;;;;16.92;100.00;101498.19;5072044;28;20035;-73
2022/06/26 07:01:40;;;;;;;11.32;7.38;;;;;;;17.03;100.00;101494.22;5072514;28;20476;-73
2022/06/26 07:04:07;;;;;;;11.52;7.65;;;;;;;17.25;100.00;101501.25;5072732;28;20111;-72
2022/06/26 07:06:32;;;;;;;11.25;7.70;;;;;;;17.43;100.00;101504.91;5072915;28;20021;-72
2022/06/26 07:08:58;;;;;;;15.57;7.13;;;;;;;17.59;100.00;101511.25;5072802;28;20031;-72
2022/06/26 07:11:23;;;;;;;14.20;6.55;;;;;;;17.67;100.00;101511.78;5062108;28;20032;-72
2022/06/26 07:13:48;;;;;;;11.63;7.18;;;;;;;17.70;100.00;101514.31;5066411;28;20409;-72
2022/06/26 07:16:14;;;;;;;14.00;7.45;;;;;;;17.76;100.00;101506.16;5071582;28;20028;-72
2022/06/26 07:18:39;;;;;;;11.73;6.70;;;;;;;17.67;100.00;101508.31;5072006;28;20029;-73
2022/06/26 07:21:05;;;;;;;9.68;6.82;;;;;;;17.67;100.00;101511.78;5071696;28;20052;-72
2022/06/26 07:23:30;;;;;;;11.00;7.10;;;;;;;17.70;100.00;101500.25;5072836;28;20036;-72
2022/06/26 07:25:56;;;;;;;10.05;6.18;;;;;;;17.87;100.00;101500.41;5072133;28;20376;-72
2022/06/26 07:28:22;;;;;;;12.18;7.05;;;;;;;17.96;100.00;101510.56;5065473;28;20036;-72
2022/06/26 07:30:48;;;;;;;9.23;7.20;;;;;;;18.09;100.00;101510.03;5059959;28;20146;-73
2022/06/26 07:35:57;;;;;;;;;;;;;;;18.24;100.00;101535.72;5071752;28;20059;-73
2022/06/26 07:38:23;;;;;;;11.05;6.25;;;;;;;18.09;100.00;101512.69;5063956;28;20365;-73
2022/06/26 07:40:48;;;;;;;9.85;6.30;;;;;;;17.98;100.00;101524.56;5068020;28;20108;-72
2022/06/26 07:43:13;;;;;;;9.32;7.38;;;;;;;17.95;100.00;101514.16;5072382;28;20048;-73
2022/06/26 07:45:39;;;;;;;11.20;6.75;;;;;;;17.93;100.00;101515.97;5078251;28;20032;-72
2022/06/26 07:48:04;;;;;;;10.73;6.63;;;;;;;17.92;100.00;101521.31;5077403;28;20020;-72
2022/06/26 07:50:30;;;;;;;10.80;5.72;;;;;;;17.91;100.00;101525.72;5072104;28;20459;-72
2022/06/26 07:52:55;;;;;;;11.48;6.50;;;;;;;17.85;100.00;101518.06;5071304;28;20029;-75
2022/06/26 07:55:21;;;;;;;8.05;6.28;;;;;;;17.86;100.00;101525.09;5072433;28;20124;-75
2022/06/26 07:57:46;;;;;;;10.63;6.28;;;;;;;17.96;100.00;101522.91;5071596;28;20021;-74
2022/06/26 08:00:12;;;;;;;9.63;6.22;;;;;;;18.01;100.00;101526.19;5071673;28;20016;-75
2022/06/26 08:02:37;;;;;;;9.45;6.10;;;;;;;18.06;100.00;101526.00;5070291;28;20472;-75
2022/06/26 08:05:03;;;;;;;9.27;6.03;;;;;;;18.11;100.00;101539.84;5070922;28;20025;-75
2022/06/26 08:07:28;;;;;;;8.57;6.30;;;;;;;18.18;100.00;101546.56;5071824;28;20028;-75
2022/06/26 08:09:53;;;;;;;8.90;6.45;;;;;;;18.20;100.00;101550.00;5071455;28;20032;-76
2022/06/26 08:12:18;;;;;;;9.57;6.32;;;;;;;18.19;100.00;101543.84;5069294;28;20490;-74
2022/06/26 08:14:44;;;;;;;8.07;5.90;;;;;;;18.14;100.00;101547.63;5070185;28;20033;-75
2022/06/26 08:17:09;;;;;;;9.32;6.15;;;;;;;17.97;97.50;101538.66;5064249;28;20087;-76
2022/06/26 08:19:34;;;;;;;10.73;6.22;;;;;;;17.91;100.00;101543.34;5071378;28;20028;-75
2022/06/26 08:22:03;;;;;;;9.68;5.93;;;;;;;17.78;100.00;101551.75;5069395;28;20488;-75
2022/06/26 08:24:29;;;;;;;7.63;5.97;;;;;;;17.67;100.00;101551.34;5072033;28;20459;-75
2022/06/26 08:26:55;;;;;;;10.18;6.43;;;;;;;17.66;100.00;101551.44;5070448;28;20077;-74
2022/06/26 08:29:20;;;;;;;8.07;5.90;;;;;;;17.64;100.00;101546.19;5060170;28;20029;-75
2022/06/26 08:31:45;;;;;;;8.93;6.50;;;;;;;17.72;100.00;101538.84;5071461;28;20024;-75
2022/06/26 08:34:11;;;;;;;8.45;6.10;;;;;;;17.80;100.00;101535.91;5069664;28;20123;-75
2022/06/26 08:36:38;;;;;;;9.02;6.13;;;;;;;17.93;99.09;101537.09;5070603;28;20039;-75
2022/06/26 08:39:05;;;;;;;8.77;6.25;;;;;;;18.03;100.00;101529.63;5067830;28;20472;-76
2022/06/26 08:41:37;;;;;;;8.80;6.20;;;;;;;18.10;99.55;101538.13;5068468;28;20017;-75
2022/06/26 08:44:02;;;;;;;8.15;6.03;;;;;;;18.13;95.59;101549.41;5063167;28;20047;-75
2022/06/26 08:46:28;;;;;;;8.48;5.60;;;;;;;18.08;95.75;101556.66;5057321;28;20063;-75
2022/06/26 08:48:57;;;;;;;8.55;5.95;;;;;;;18.08;98.96;101561.94;5062497;28;20539;-75
2022/06/26 08:51:23;;;;;;;9.63;5.78;;;;;;;18.13;97.96;101552.03;5065934;28;20060;-75
2022/06/26 08:53:52;;;;;;;8.57;6.00;;;;;;;18.18;97.38;101552.72;5058598;28;20117;-75
2022/06/26 08:56:17;;;;;;;8.55;5.25;;;;;;;18.22;98.46;101553.44;5069623;28;20412;-76
2022/06/26 08:58:42;;;;;;;6.88;4.80;;;;;;;18.19;97.42;101549.13;5067440;28;20503;-76
2022/06/26 09:01:08;;;;;;;8.52;5.75;;;;;;;18.12;99.63;101552.13;5066134;28;20028;-75
2022/06/26 09:03:34;;;;;;;8.05;5.22;;;;;;;18.08;97.68;101556.66;5070705;28;20024;-75
2022/06/26 09:06:01;;;;;;;5.68;4.90;;;;;;;18.06;97.66;101562.94;5071778;28;20017;-75
2022/06/26 09:08:28;;;;;;;8.73;5.10;;;;;;;18.13;97.88;101553.84;5071312;28;20047;-75
2022/06/26 09:10:54;;;;;;;5.32;4.28;;;;;;;18.21;98.50;101554.34;5066630;28;20432;-75
2022/06/26 09:13:19;;;;;;;7.90;4.45;;;;;;;18.27;97.06;101540.88;5063845;28;20012;-75
2022/06/26 09:15:45;;;;;;;6.47;4.70;;;;;;;18.34;93.72;101552.00;5070601;28;20032;-75
2022/06/26 09:18:13;;;;;;;6.60;4.10;;;;;;;18.34;96.92;101552.00;5070906;28;20027;-75
2022/06/26 09:20:51;;;;;;;7.07;5.10;;;;;;;18.37;96.65;101549.25;5071845;28;20074;-75
2022/06/26 09:23:16;;;;;;;11.48;4.97;;;;;;;18.36;94.42;101545.75;5074488;28;20540;-76
2022/06/26 09:25:44;;;;;;;8.93;4.60;;;;;;;18.48;93.12;101557.56;5074637;28;20078;-76
2022/06/26 09:28:15;;;;;;;11.35;4.97;;;;;;;18.56;94.61;101550.13;5074883;28;20023;-76
2022/06/26 09:30:49;;;;;;;6.28;5.05;;;;;;;18.71;95.13;101564.44;5074562;28;20024;-76
2022/06/26 09:33:15;;;;;;;6.68;4.85;;;;;;;18.77;93.99;101566.81;5075214;28;20024;-77
2022/06/26 09:35:40;;;;;;;6.18;4.75;;;;;;;18.83;94.42;101570.94;5072122;28;20051;-76
2022/06/26 09:38:06;;;;;;;10.10;5.28;;;;;;;18.87;97.40;101551.41;5073356;28;20496;-76
2022/06/26 09:40:31;;;;;;;7.72;4.65;;;;;;;18.89;95.16;101545.09;5073186;28;20075;-77
2022/06/26 09:42:56;;;;;;;5.57;4.43;;;;;;;18.91;91.71;101566.16;5072022;28;20039;-77
2022/06/26 09:45:22;;;;;;;6.47;4.15;;;;;;;18.83;94.46;101565.66;5066538;28;20078;-77
2022/06/26 09:47:47;;;;;;;9.10;4.63;;;;;;;18.74;90.59;101569.59;5065656;28;20082;-77
2022/06/26 09:50:13;;;;;;;4.15;3.75;;;;;;;18.61;89.54;101566.63;5074491;28;20020;-76
2022/06/26 09:52:38;;;;;;;6.68;4.03;;;;;;;18.69;88.79;101564.47;5073698;28;20023;-76
2022/06/26 09:55:05;;;;;;;6.07;3.95;;;;;;;18.75;91.78;101566.03;5072387;28;20097;-76
2022/06/26 09:57:32;;;;;;;6.88;3.95;;;;;;;18.91;88.60;101569.66;5073523;28;20040;-76
2022/06/26 09:59:58;;;;;;;6.53;3.70;;;;;;;19.05;87.51;101571.66;5072327;28;20051;-77
2022/06/26 10:08:05;;;;;;;5.88;3.90;;;;;;;19.50;91.57;101573.00;5073582;28;20055;-77
2022/06/26 10:10:32;;;;;;;7.25;4.05;;;;;;;19.42;87.33;101576.03;5071524;28;20094;-77
2022/06/26 10:13:09;;;;;;;6.45;4.25;;;;;;;19.44;87.72;101586.53;5069488;28;20021;-77
2022/06/26 10:15:54;;;;;;;6.53;4.00;;;;;;;19.50;89.48;101582.75;5073669;28;20021;-77
2022/06/26 10:18:25;;;;;;;5.93;3.80;;;;;;;19.47;87.05;101590.81;5074134;28;20024;-77
2022/06/26 10:20:54;;;;;;;7.00;4.55;;;;;;;19.53;91.03;101593.16;5073732;28;20035;-77
2022/06/26 10:23:33;;;;;;;7.80;4.30;;;;;;;19.76;89.30;101594.72;5074129;28;20533;-77
2022/06/26 10:26:10;;;;;;;7.55;4.40;;;;;;;20.06;90.63;101589.66;5073867;28;20052;-77
2022/06/26 10:28:36;;;;;;;8.98;4.40;;;;;;;20.31;86.50;101590.09;5072988;28;20099;-77
2022/06/26 10:31:07;;;;;;;6.30;4.65;;;;;;;20.41;86.15;101585.16;5073395;28;20120;-77
2022/06/26 10:33:33;;;;;;;11.00;5.32;;;;;;;20.54;82.95;101588.06;5073125;28;20024;-77
2022/06/26 10:35:58;;;;;;;6.45;5.05;;;;;;;20.63;85.77;101600.78;5073999;28;20016;-77
2022/06/26 10:38:25;;;;;;;9.48;5.75;;;;;;;20.80;83.06;101597.25;5072110;28;20071;-77
2022/06/26 10:44:01;;;;;;;12.70;5.28;;;;;;;21.05;82.57;101594.94;5072665;28;20043;-77
2022/06/26 10:46:56;;;;;;;7.90;3.70;;;;;;;21.23;79.65;101592.22;5072450;28;20311;-76
2022/06/26 10:49:22;;;;;;;6.57;3.90;;;;;;;21.43;78.73;101594.63;5067128;28;20021;-77
2022/06/26 10:51:47;;;;;;;6.57;3.75;;;;;;;21.62;76.99;101588.25;5070369;28;20078;-77
2022/06/26 10:54:23;;;;;;;5.88;3.15;;;;;;;21.65;79.19;101590.75;5072564;28;20020;-77
2022/06/26 10:57:12;;;;;;;6.97;3.30;;;;;;;21.83;81.81;101591.44;5071483;28;20094;-77
2022/06/26 10:59:41;;;;;;;5.72;3.20;;;;;;;21.85;74.74;101585.13;5072679;28;20020;-77
2022/06/26 11:02:10;;;;;;;7.32;3.63;;;;;;;21.81;77.24;101598.63;5072790;28;20073;-77
2022/06/26 11:04:49;;;;;;;6.65;3.15;;;;;;;21.74;79.45;101599.03;5068328;28;20025;-77
2022/06/26 11:07:16;;;;;;;11.93;3.15;;;;;;;21.74;74.15;101593.72;5072564;28;20013;-77
2022/06/26 11:09:43;;;;;;;4.82;2.60;;;;;;;21.69;72.46;101590.47;5072368;28;20035;-77
2022/06/26 11:12:08;;;;;;;5.80;3.00;;;;;;;21.83;80.34;101583.50;5059043;28;20546;-77
2022/06/26 11:14:34;;;;;;;5.20;3.30;;;;;;;21.96;73.46;101584.47;5070680;28;20020;-77
2022/06/26 11:16:59;;;;;;;6.78;2.97;;;;;;;21.85;75.94;101579.81;5070115;28;20028;-77
2022/06/26 11:19:32;;;;;;;7.00;3.45;;;;;;;21.90;76.69;101572.41;5061429;28;20162;-77
2022/06/26 11:22:05;;;;;;;8.45;3.13;;;;;;;21.99;76.79;101568.34;5068774;28;20029;-77